Terminal Aerodrome Forecast
Issued by NWS

Home | Current Version | Previous Version | Text Only | Print | Product List | Glossary On
Versions: 1 2 3 4 5 6 7 8 9 10 11 12 13 14 15 16 17 18 19 20 21 22 23 24 25 26 27 28 29 30 31 32 33 34 35 36
145
FTAK31 PAFA 272332
TAFASC
TAF
PASC 272332Z 2800/2824 07014KT P6SM VCFG OVC006
     FM280600 08015KT 1SM BR BKN003
     FM282000 08020KT P6SM OVC006=

USA.gov is the U.S. government's official web portal to all federal, state and local government web resources and services.